sensor_id;sensor_type;location;lat;lon;timestamp;P1;durP1;ratioP1;P2;durP2;ratioP2
25191;SDS011;13143;50.924;5.320;2022-10-16T00:00:34;6.97;;;1.20;;
25191;SDS011;13143;50.924;5.320;2022-10-16T00:03:01;4.53;;;1.20;;
25191;SDS011;13143;50.924;5.320;2022-10-16T00:05:27;4.97;;;1.35;;
25191;SDS011;13143;50.924;5.320;2022-10-16T00:07:53;3.22;;;0.98;;
25191;SDS011;13143;50.924;5.320;2022-10-16T00:10:18;4.15;;;1.40;;
25191;SDS011;13143;50.924;5.320;2022-10-16T00:12:44;1.77;;;1.20;;
25191;SDS011;13143;50.924;5.320;2022-10-16T00:15:10;4.45;;;1.30;;
25191;SDS011;13143;50.924;5.320;2022-10-16T00:17:36;2.22;;;1.20;;
25191;SDS011;13143;50.924;5.320;2022-10-16T00:20:02;5.75;;;1.30;;
25191;SDS011;13143;50.924;5.320;2022-10-16T00:22:28;5.90;;;1.02;;
25191;SDS011;13143;50.924;5.320;2022-10-16T00:24:54;3.22;;;0.95;;
25191;SDS011;13143;50.924;5.320;2022-10-16T00:27:19;2.25;;;1.10;;
25191;SDS011;13143;50.924;5.320;2022-10-16T00:29:49;4.00;;;1.00;;
25191;SDS011;13143;50.924;5.320;2022-10-16T00:32:20;4.05;;;1.13;;
25191;SDS011;13143;50.924;5.320;2022-10-16T00:34:46;2.08;;;1.08;;
25191;SDS011;13143;50.924;5.320;2022-10-16T00:37:12;4.13;;;1.17;;
25191;SDS011;13143;50.924;5.320;2022-10-16T00:39:38;1.02;;;0.90;;
25191;SDS011;13143;50.924;5.320;2022-10-16T00:42:04;2.13;;;1.13;;
25191;SDS011;13143;50.924;5.320;2022-10-16T00:47:32;6.43;;;1.50;;
25191;SDS011;13143;50.924;5.320;2022-10-16T00:50:04;4.10;;;1.10;;
25191;SDS011;13143;50.924;5.320;2022-10-16T00:52:35;2.90;;;1.10;;
25191;SDS011;13143;50.924;5.320;2022-10-16T00:55:04;1.73;;;0.90;;
25191;SDS011;13143;50.924;5.320;2022-10-16T00:57:31;2.28;;;1.10;;
25191;SDS011;13143;50.924;5.320;2022-10-16T00:59:57;6.38;;;1.02;;
25191;SDS011;13143;50.924;5.320;2022-10-16T01:02:23;4.55;;;1.10;;
25191;SDS011;13143;50.924;5.320;2022-10-16T01:04:50;2.78;;;1.02;;
25191;SDS011;13143;50.924;5.320;2022-10-16T01:12:54;2.38;;;1.08;;
25191;SDS011;13143;50.924;5.320;2022-10-16T01:15:30;0.93;;;0.75;;
25191;SDS011;13143;50.924;5.320;2022-10-16T01:18:25;3.95;;;1.10;;
25191;SDS011;13143;50.924;5.320;2022-10-16T01:21:15;1.00;;;0.80;;
25191;SDS011;13143;50.924;5.320;2022-10-16T01:29:34;3.28;;;0.90;;
25191;SDS011;13143;50.924;5.320;2022-10-16T01:32:15;1.58;;;0.93;;
25191;SDS011;13143;50.924;5.320;2022-10-16T01:35:05;3.15;;;0.73;;
25191;SDS011;13143;50.924;5.320;2022-10-16T01:37:37;4.35;;;1.10;;
25191;SDS011;13143;50.924;5.320;2022-10-16T01:40:08;2.45;;;1.05;;
25191;SDS011;13143;50.924;5.320;2022-10-16T01:42:37;6.15;;;1.23;;
25191;SDS011;13143;50.924;5.320;2022-10-16T01:45:07;3.60;;;1.20;;
25191;SDS011;13143;50.924;5.320;2022-10-16T01:47:36;2.97;;;1.10;;
25191;SDS011;13143;50.924;5.320;2022-10-16T01:50:04;3.65;;;1.02;;
25191;SDS011;13143;50.924;5.320;2022-10-16T01:52:30;2.38;;;0.90;;
25191;SDS011;13143;50.924;5.320;2022-10-16T01:54:58;2.70;;;1.38;;
25191;SDS011;13143;50.924;5.320;2022-10-16T01:57:27;4.43;;;1.10;;
25191;SDS011;13143;50.924;5.320;2022-10-16T01:59:56;5.55;;;0.90;;
25191;SDS011;13143;50.924;5.320;2022-10-16T02:02:26;6.47;;;1.13;;
25191;SDS011;13143;50.924;5.320;2022-10-16T02:05:02;4.75;;;1.45;;
25191;SDS011;13143;50.924;5.320;2022-10-16T02:07:37;0.95;;;0.70;;
25191;SDS011;13143;50.924;5.320;2022-10-16T02:10:03;3.67;;;1.30;;
25191;SDS011;13143;50.924;5.320;2022-10-16T02:12:31;2.53;;;1.10;;
25191;SDS011;13143;50.924;5.320;2022-10-16T02:14:59;6.40;;;1.13;;
25191;SDS011;13143;50.924;5.320;2022-10-16T02:17:24;2.08;;;1.00;;
25191;SDS011;13143;50.924;5.320;2022-10-16T02:19:51;3.42;;;1.20;;
25191;SDS011;13143;50.924;5.320;2022-10-16T02:22:25;3.90;;;1.27;;
25191;SDS011;13143;50.924;5.320;2022-10-16T02:25:03;3.55;;;1.63;;
25191;SDS011;13143;50.924;5.320;2022-10-16T02:30:34;1.40;;;1.00;;
25191;SDS011;13143;50.924;5.320;2022-10-16T02:33:02;1.73;;;1.00;;
25191;SDS011;13143;50.924;5.320;2022-10-16T02:35:31;4.65;;;1.38;;
25191;SDS011;13143;50.924;5.320;2022-10-16T02:37:57;4.05;;;1.17;;
25191;SDS011;13143;50.924;5.320;2022-10-16T02:40:24;2.63;;;1.10;;
25191;SDS011;13143;50.924;5.320;2022-10-16T02:42:51;2.38;;;1.42;;
25191;SDS011;13143;50.924;5.320;2022-10-16T02:45:18;2.20;;;1.10;;
25191;SDS011;13143;50.924;5.320;2022-10-16T02:47:45;3.42;;;1.08;;
25191;SDS011;13143;50.924;5.320;2022-10-16T02:50:10;3.65;;;1.17;;
25191;SDS011;13143;50.924;5.320;2022-10-16T02:52:36;1.10;;;0.95;;
25191;SDS011;13143;50.924;5.320;2022-10-16T02:55:02;3.45;;;1.25;;
25191;SDS011;13143;50.924;5.320;2022-10-16T02:57:27;7.97;;;1.45;;
25191;SDS011;13143;50.924;5.320;2022-10-16T02:59:53;3.85;;;1.30;;
25191;SDS011;13143;50.924;5.320;2022-10-16T03:02:19;0.80;;;0.80;;
25191;SDS011;13143;50.924;5.320;2022-10-16T03:04:44;1.73;;;1.15;;
25191;SDS011;13143;50.924;5.320;2022-10-16T03:07:10;2.63;;;1.10;;
25191;SDS011;13143;50.924;5.320;2022-10-16T03:09:36;2.33;;;1.20;;
25191;SDS011;13143;50.924;5.320;2022-10-16T03:12:01;7.03;;;1.10;;
25191;SDS011;13143;50.924;5.320;2022-10-16T03:14:27;1.15;;;1.00;;
25191;SDS011;13143;50.924;5.320;2022-10-16T03:16:53;4.70;;;1.35;;
25191;SDS011;13143;50.924;5.320;2022-10-16T03:19:18;3.72;;;1.10;;
25191;SDS011;13143;50.924;5.320;2022-10-16T03:21:44;5.85;;;1.10;;
25191;SDS011;13143;50.924;5.320;2022-10-16T03:24:10;1.67;;;1.30;;
25191;SDS011;13143;50.924;5.320;2022-10-16T03:26:36;2.33;;;1.15;;
25191;SDS011;13143;50.924;5.320;2022-10-16T03:29:02;5.78;;;1.50;;
25191;SDS011;13143;50.924;5.320;2022-10-16T03:31:28;1.48;;;1.10;;
25191;SDS011;13143;50.924;5.320;2022-10-16T03:33:54;2.60;;;1.10;;
25191;SDS011;13143;50.924;5.320;2022-10-16T03:36:20;3.03;;;1.17;;
25191;SDS011;13143;50.924;5.320;2022-10-16T03:38:45;4.43;;;1.13;;
25191;SDS011;13143;50.924;5.320;2022-10-16T03:41:11;2.67;;;1.63;;
25191;SDS011;13143;50.924;5.320;2022-10-16T03:43:36;4.20;;;1.15;;
25191;SDS011;13143;50.924;5.320;2022-10-16T03:46:02;2.80;;;1.40;;
25191;SDS011;13143;50.924;5.320;2022-10-16T03:48:28;2.38;;;1.33;;
25191;SDS011;13143;50.924;5.320;2022-10-16T03:50:54;2.10;;;1.38;;
25191;SDS011;13143;50.924;5.320;2022-10-16T03:53:19;2.65;;;1.10;;
25191;SDS011;13143;50.924;5.320;2022-10-16T03:55:45;3.42;;;1.40;;
25191;SDS011;13143;50.924;5.320;2022-10-16T03:58:11;4.20;;;1.27;;
25191;SDS011;13143;50.924;5.320;2022-10-16T04:00:45;2.22;;;1.35;;
25191;SDS011;13143;50.924;5.320;2022-10-16T04:03:12;3.72;;;1.63;;
25191;SDS011;13143;50.924;5.320;2022-10-16T04:05:38;2.55;;;1.40;;
25191;SDS011;13143;50.924;5.320;2022-10-16T04:08:04;2.92;;;1.75;;
25191;SDS011;13143;50.924;5.320;2022-10-16T04:10:30;4.30;;;1.65;;
25191;SDS011;13143;50.924;5.320;2022-10-16T04:12:56;1.95;;;1.60;;
25191;SDS011;13143;50.924;5.320;2022-10-16T04:15:22;5.97;;;1.70;;
25191;SDS011;13143;50.924;5.320;2022-10-16T04:17:48;3.58;;;1.67;;
25191;SDS011;13143;50.924;5.320;2022-10-16T04:20:13;2.85;;;1.83;;
25191;SDS011;13143;50.924;5.320;2022-10-16T04:22:39;4.00;;;1.88;;
25191;SDS011;13143;50.924;5.320;2022-10-16T04:25:05;3.25;;;1.85;;
25191;SDS011;13143;50.924;5.320;2022-10-16T04:27:31;4.15;;;1.65;;
25191;SDS011;13143;50.924;5.320;2022-10-16T04:29:57;1.92;;;1.48;;
25191;SDS011;13143;50.924;5.320;2022-10-16T04:32:23;3.40;;;1.63;;
25191;SDS011;13143;50.924;5.320;2022-10-16T04:34:49;6.32;;;2.00;;
25191;SDS011;13143;50.924;5.320;2022-10-16T04:37:14;7.65;;;1.95;;
25191;SDS011;13143;50.924;5.320;2022-10-16T04:39:40;5.53;;;1.65;;
25191;SDS011;13143;50.924;5.320;2022-10-16T04:42:06;7.57;;;2.53;;
25191;SDS011;13143;50.924;5.320;2022-10-16T04:44:31;5.28;;;1.98;;
25191;SDS011;13143;50.924;5.320;2022-10-16T04:46:57;6.72;;;1.85;;
25191;SDS011;13143;50.924;5.320;2022-10-16T04:49:22;3.33;;;1.90;;
25191;SDS011;13143;50.924;5.320;2022-10-16T04:51:48;3.22;;;1.77;;
25191;SDS011;13143;50.924;5.320;2022-10-16T04:54:14;3.88;;;1.92;;
25191;SDS011;13143;50.924;5.320;2022-10-16T04:56:39;3.38;;;2.53;;
25191;SDS011;13143;50.924;5.320;2022-10-16T04:59:11;3.67;;;2.33;;
25191;SDS011;13143;50.924;5.320;2022-10-16T05:01:38;3.03;;;1.88;;
25191;SDS011;13143;50.924;5.320;2022-10-16T05:04:03;6.03;;;1.85;;
25191;SDS011;13143;50.924;5.320;2022-10-16T05:06:29;5.45;;;2.10;;
25191;SDS011;13143;50.924;5.320;2022-10-16T05:08:55;5.68;;;2.28;;
25191;SDS011;13143;50.924;5.320;2022-10-16T05:11:20;3.40;;;2.35;;
25191;SDS011;13143;50.924;5.320;2022-10-16T05:13:46;8.38;;;2.33;;
25191;SDS011;13143;50.924;5.320;2022-10-16T05:16:12;7.85;;;2.20;;
25191;SDS011;13143;50.924;5.320;2022-10-16T05:18:37;4.32;;;2.50;;
25191;SDS011;13143;50.924;5.320;2022-10-16T05:21:03;5.68;;;2.10;;
25191;SDS011;13143;50.924;5.320;2022-10-16T05:23:29;3.92;;;2.30;;
25191;SDS011;13143;50.924;5.320;2022-10-16T05:25:55;10.27;;;2.50;;
25191;SDS011;13143;50.924;5.320;2022-10-16T05:28:23;6.80;;;2.40;;
25191;SDS011;13143;50.924;5.320;2022-10-16T05:30:52;4.80;;;2.40;;
25191;SDS011;13143;50.924;5.320;2022-10-16T05:33:22;7.00;;;2.38;;
25191;SDS011;13143;50.924;5.320;2022-10-16T05:35:50;5.85;;;2.35;;
25191;SDS011;13143;50.924;5.320;2022-10-16T05:38:16;8.52;;;2.50;;
25191;SDS011;13143;50.924;5.320;2022-10-16T05:40:42;7.03;;;2.40;;
25191;SDS011;13143;50.924;5.320;2022-10-16T05:43:08;5.00;;;2.70;;
25191;SDS011;13143;50.924;5.320;2022-10-16T05:45:34;6.93;;;2.40;;
25191;SDS011;13143;50.924;5.320;2022-10-16T05:47:59;6.57;;;2.60;;
25191;SDS011;13143;50.924;5.320;2022-10-16T05:50:25;6.50;;;2.28;;
25191;SDS011;13143;50.924;5.320;2022-10-16T05:52:51;3.75;;;2.53;;
25191;SDS011;13143;50.924;5.320;2022-10-16T05:55:17;6.53;;;2.25;;
25191;SDS011;13143;50.924;5.320;2022-10-16T05:57:43;4.18;;;1.98;;
25191;SDS011;13143;50.924;5.320;2022-10-16T06:00:08;4.93;;;2.20;;
25191;SDS011;13143;50.924;5.320;2022-10-16T06:02:35;11.10;;;2.45;;
25191;SDS011;13143;50.924;5.320;2022-10-16T06:05:00;6.05;;;2.20;;
25191;SDS011;13143;50.924;5.320;2022-10-16T06:07:26;6.60;;;2.17;;
25191;SDS011;13143;50.924;5.320;2022-10-16T06:09:52;3.80;;;2.17;;
25191;SDS011;13143;50.924;5.320;2022-10-16T06:12:18;3.83;;;2.10;;
25191;SDS011;13143;50.924;5.320;2022-10-16T06:14:45;4.35;;;2.28;;
25191;SDS011;13143;50.924;5.320;2022-10-16T06:17:14;3.13;;;1.83;;
25191;SDS011;13143;50.924;5.320;2022-10-16T06:19:40;4.80;;;2.28;;
25191;SDS011;13143;50.924;5.320;2022-10-16T06:22:06;8.02;;;2.35;;
25191;SDS011;13143;50.924;5.320;2022-10-16T06:24:32;5.03;;;2.40;;
25191;SDS011;13143;50.924;5.320;2022-10-16T06:26:58;4.63;;;2.13;;
25191;SDS011;13143;50.924;5.320;2022-10-16T06:29:23;6.80;;;3.30;;
25191;SDS011;13143;50.924;5.320;2022-10-16T06:31:49;4.95;;;2.30;;
25191;SDS011;13143;50.924;5.320;2022-10-16T06:34:14;3.15;;;2.03;;
25191;SDS011;13143;50.924;5.320;2022-10-16T06:36:40;7.43;;;2.53;;
25191;SDS011;13143;50.924;5.320;2022-10-16T06:39:06;2.92;;;2.20;;
25191;SDS011;13143;50.924;5.320;2022-10-16T06:41:34;5.60;;;2.10;;
25191;SDS011;13143;50.924;5.320;2022-10-16T06:44:00;4.47;;;2.00;;
25191;SDS011;13143;50.924;5.320;2022-10-16T06:46:26;6.03;;;2.00;;
25191;SDS011;13143;50.924;5.320;2022-10-16T06:48:52;4.22;;;2.50;;
25191;SDS011;13143;50.924;5.320;2022-10-16T06:51:22;8.90;;;2.72;;
25191;SDS011;13143;50.924;5.320;2022-10-16T06:53:49;7.97;;;2.58;;
25191;SDS011;13143;50.924;5.320;2022-10-16T06:56:17;8.38;;;2.95;;
25191;SDS011;13143;50.924;5.320;2022-10-16T06:58:47;6.22;;;2.40;;
25191;SDS011;13143;50.924;5.320;2022-10-16T07:01:14;3.55;;;2.30;;
25191;SDS011;13143;50.924;5.320;2022-10-16T07:03:40;5.53;;;2.60;;
25191;SDS011;13143;50.924;5.320;2022-10-16T07:06:08;8.05;;;2.67;;
25191;SDS011;13143;50.924;5.320;2022-10-16T07:08:39;7.88;;;2.78;;
25191;SDS011;13143;50.924;5.320;2022-10-16T07:11:09;9.88;;;2.58;;
25191;SDS011;13143;50.924;5.320;2022-10-16T07:13:37;5.05;;;2.55;;
25191;SDS011;13143;50.924;5.320;2022-10-16T07:16:08;6.40;;;2.65;;
25191;SDS011;13143;50.924;5.320;2022-10-16T07:18:36;4.38;;;2.88;;
25191;SDS011;13143;50.924;5.320;2022-10-16T07:21:07;6.82;;;2.85;;
25191;SDS011;13143;50.924;5.320;2022-10-16T07:23:37;4.57;;;2.75;;
25191;SDS011;13143;50.924;5.320;2022-10-16T07:26:03;4.35;;;2.70;;
25191;SDS011;13143;50.924;5.320;2022-10-16T07:28:29;6.22;;;2.70;;
25191;SDS011;13143;50.924;5.320;2022-10-16T07:30:59;6.47;;;2.65;;
25191;SDS011;13143;50.924;5.320;2022-10-16T07:33:26;4.32;;;2.47;;
25191;SDS011;13143;50.924;5.320;2022-10-16T07:35:52;3.80;;;2.30;;
25191;SDS011;13143;50.924;5.320;2022-10-16T07:38:18;8.68;;;2.45;;
25191;SDS011;13143;50.924;5.320;2022-10-16T07:40:44;6.70;;;2.40;;
25191;SDS011;13143;50.924;5.320;2022-10-16T07:43:10;4.35;;;2.53;;
25191;SDS011;13143;50.924;5.320;2022-10-16T07:45:36;3.97;;;2.05;;
25191;SDS011;13143;50.924;5.320;2022-10-16T07:48:03;4.78;;;2.35;;
25191;SDS011;13143;50.924;5.320;2022-10-16T07:50:29;8.05;;;2.35;;
25191;SDS011;13143;50.924;5.320;2022-10-16T07:52:54;6.63;;;3.22;;
25191;SDS011;13143;50.924;5.320;2022-10-16T07:55:20;4.65;;;2.20;;
25191;SDS011;13143;50.924;5.320;2022-10-16T07:57:45;8.45;;;2.40;;
25191;SDS011;13143;50.924;5.320;2022-10-16T08:00:11;6.15;;;2.10;;
25191;SDS011;13143;50.924;5.320;2022-10-16T08:02:41;9.82;;;2.47;;
25191;SDS011;13143;50.924;5.320;2022-10-16T08:05:07;9.82;;;2.63;;
25191;SDS011;13143;50.924;5.320;2022-10-16T08:07:33;6.53;;;2.20;;
25191;SDS011;13143;50.924;5.320;2022-10-16T08:09:58;2.35;;;2.03;;
25191;SDS011;13143;50.924;5.320;2022-10-16T08:12:27;3.80;;;2.10;;
25191;SDS011;13143;50.924;5.320;2022-10-16T08:14:53;4.90;;;2.38;;
25191;SDS011;13143;50.924;5.320;2022-10-16T08:17:18;3.53;;;1.92;;
25191;SDS011;13143;50.924;5.320;2022-10-16T08:19:47;5.63;;;2.30;;
25191;SDS011;13143;50.924;5.320;2022-10-16T08:22:16;4.38;;;2.15;;
25191;SDS011;13143;50.924;5.320;2022-10-16T08:24:41;4.15;;;2.05;;
25191;SDS011;13143;50.924;5.320;2022-10-16T08:27:07;5.60;;;1.90;;
25191;SDS011;13143;50.924;5.320;2022-10-16T08:29:34;5.75;;;2.00;;
25191;SDS011;13143;50.924;5.320;2022-10-16T08:31:59;6.32;;;1.85;;
25191;SDS011;13143;50.924;5.320;2022-10-16T08:34:25;6.38;;;2.30;;
25191;SDS011;13143;50.924;5.320;2022-10-16T08:36:52;5.53;;;1.83;;
25191;SDS011;13143;50.924;5.320;2022-10-16T08:39:19;10.65;;;2.20;;
25191;SDS011;13143;50.924;5.320;2022-10-16T08:50:17;4.38;;;1.85;;
25191;SDS011;13143;50.924;5.320;2022-10-16T08:52:49;7.03;;;2.10;;
25191;SDS011;13143;50.924;5.320;2022-10-16T08:58:00;6.05;;;2.22;;
25191;SDS011;13143;50.924;5.320;2022-10-16T09:00:26;2.70;;;1.42;;
25191;SDS011;13143;50.924;5.320;2022-10-16T09:02:56;9.05;;;1.52;;
25191;SDS011;13143;50.924;5.320;2022-10-16T09:08:28;9.13;;;1.95;;
25191;SDS011;13143;50.924;5.320;2022-10-16T09:16:52;3.70;;;1.67;;
25191;SDS011;13143;50.924;5.320;2022-10-16T09:19:31;10.05;;;2.03;;
25191;SDS011;13143;50.924;5.320;2022-10-16T09:22:09;5.32;;;1.50;;
25191;SDS011;13143;50.924;5.320;2022-10-16T09:24:39;4.65;;;1.70;;
25191;SDS011;13143;50.924;5.320;2022-10-16T09:27:04;4.97;;;1.70;;
25191;SDS011;13143;50.924;5.320;2022-10-16T09:29:35;4.47;;;1.50;;
25191;SDS011;13143;50.924;5.320;2022-10-16T09:32:07;5.70;;;1.75;;
25191;SDS011;13143;50.924;5.320;2022-10-16T09:34:39;5.93;;;1.80;;
25191;SDS011;13143;50.924;5.320;2022-10-16T09:37:14;5.93;;;1.63;;
25191;SDS011;13143;50.924;5.320;2022-10-16T09:39:44;4.47;;;1.77;;
25191;SDS011;13143;50.924;5.320;2022-10-16T09:42:14;4.40;;;1.70;;
25191;SDS011;13143;50.924;5.320;2022-10-16T09:44:47;6.72;;;1.63;;
25191;SDS011;13143;50.924;5.320;2022-10-16T09:47:16;6.20;;;1.60;;
25191;SDS011;13143;50.924;5.320;2022-10-16T09:49:55;5.80;;;1.73;;
25191;SDS011;13143;50.924;5.320;2022-10-16T09:52:23;10.48;;;1.92;;
25191;SDS011;13143;50.924;5.320;2022-10-16T09:57:17;9.05;;;2.50;;
25191;SDS011;13143;50.924;5.320;2022-10-16T09:59:46;6.82;;;1.52;;
25191;SDS011;13143;50.924;5.320;2022-10-16T10:02:14;4.70;;;1.50;;
25191;SDS011;13143;50.924;5.320;2022-10-16T10:04:44;9.90;;;1.50;;
25191;SDS011;13143;50.924;5.320;2022-10-16T10:07:30;7.40;;;1.80;;
25191;SDS011;13143;50.924;5.320;2022-10-16T10:09:59;6.97;;;1.60;;
25191;SDS011;13143;50.924;5.320;2022-10-16T10:12:29;8.07;;;1.50;;
25191;SDS011;13143;50.924;5.320;2022-10-16T10:15:11;7.10;;;1.33;;
25191;SDS011;13143;50.924;5.320;2022-10-16T10:17:48;9.57;;;2.22;;
25191;SDS011;13143;50.924;5.320;2022-10-16T10:22:50;10.93;;;1.95;;
25191;SDS011;13143;50.924;5.320;2022-10-16T10:25:19;8.10;;;1.52;;
25191;SDS011;13143;50.924;5.320;2022-10-16T10:30:18;4.78;;;1.52;;
25191;SDS011;13143;50.924;5.320;2022-10-16T10:38:20;4.88;;;1.27;;
25191;SDS011;13143;50.924;5.320;2022-10-16T10:41:04;9.90;;;1.77;;
25191;SDS011;13143;50.924;5.320;2022-10-16T10:54:43;7.32;;;1.48;;
25191;SDS011;13143;50.924;5.320;2022-10-16T11:00:26;5.50;;;1.38;;
25191;SDS011;13143;50.924;5.320;2022-10-16T11:03:19;7.05;;;1.40;;
25191;SDS011;13143;50.924;5.320;2022-10-16T11:06:16;6.68;;;1.50;;
25191;SDS011;13143;50.924;5.320;2022-10-16T11:11:24;8.70;;;1.83;;
25191;SDS011;13143;50.924;5.320;2022-10-16T11:17:13;8.85;;;1.73;;
25191;SDS011;13143;50.924;5.320;2022-10-16T11:20:51;5.10;;;1.30;;
25191;SDS011;13143;50.924;5.320;2022-10-16T11:26:02;4.03;;;1.30;;
25191;SDS011;13143;50.924;5.320;2022-10-16T11:28:33;6.75;;;1.10;;
25191;SDS011;13143;50.924;5.320;2022-10-16T11:33:45;3.00;;;1.45;;
25191;SDS011;13143;50.924;5.320;2022-10-16T11:36:22;12.73;;;1.30;;
25191;SDS011;13143;50.924;5.320;2022-10-16T11:41:39;3.83;;;1.13;;
25191;SDS011;13143;50.924;5.320;2022-10-16T11:44:33;1.63;;;0.95;;
25191;SDS011;13143;50.924;5.320;2022-10-16T11:47:33;3.55;;;1.17;;
25191;SDS011;13143;50.924;5.320;2022-10-16T11:50:17;3.60;;;1.23;;
25191;SDS011;13143;50.924;5.320;2022-10-16T11:53:16;7.45;;;1.20;;
25191;SDS011;13143;50.924;5.320;2022-10-16T11:55:53;4.20;;;1.60;;
25191;SDS011;13143;50.924;5.320;2022-10-16T12:03:42;3.30;;;1.10;;
25191;SDS011;13143;50.924;5.320;2022-10-16T12:06:13;7.85;;;1.33;;
25191;SDS011;13143;50.924;5.320;2022-10-16T12:08:46;5.68;;;1.33;;
25191;SDS011;13143;50.924;5.320;2022-10-16T12:11:23;7.45;;;1.63;;
25191;SDS011;13143;50.924;5.320;2022-10-16T12:14:07;4.65;;;1.05;;
25191;SDS011;13143;50.924;5.320;2022-10-16T12:16:37;5.68;;;1.23;;
25191;SDS011;13143;50.924;5.320;2022-10-16T12:21:35;6.57;;;1.00;;
25191;SDS011;13143;50.924;5.320;2022-10-16T12:24:02;5.95;;;1.13;;
25191;SDS011;13143;50.924;5.320;2022-10-16T12:26:31;4.97;;;1.25;;
25191;SDS011;13143;50.924;5.320;2022-10-16T12:29:20;5.95;;;1.15;;
25191;SDS011;13143;50.924;5.320;2022-10-16T12:31:53;6.38;;;1.05;;
25191;SDS011;13143;50.924;5.320;2022-10-16T12:34:23;7.20;;;1.27;;
25191;SDS011;13143;50.924;5.320;2022-10-16T12:37:19;3.65;;;1.00;;
25191;SDS011;13143;50.924;5.320;2022-10-16T12:39:48;2.60;;;1.00;;
25191;SDS011;13143;50.924;5.320;2022-10-16T12:44:52;5.38;;;1.17;;
25191;SDS011;13143;50.924;5.320;2022-10-16T12:49:56;4.53;;;1.17;;
25191;SDS011;13143;50.924;5.320;2022-10-16T12:52:56;2.60;;;1.00;;
25191;SDS011;13143;50.924;5.320;2022-10-16T12:55:16;3.22;;;1.00;;
25191;SDS011;13143;50.924;5.320;2022-10-16T12:57:57;2.42;;;1.10;;
25191;SDS011;13143;50.924;5.320;2022-10-16T13:11:15;3.58;;;0.90;;
25191;SDS011;13143;50.924;5.320;2022-10-16T13:22:24;3.30;;;1.08;;
25191;SDS011;13143;50.924;5.320;2022-10-16T13:25:18;3.30;;;1.45;;
25191;SDS011;13143;50.924;5.320;2022-10-16T13:27:54;6.78;;;1.30;;
25191;SDS011;13143;50.924;5.320;2022-10-16T13:30:33;2.50;;;0.95;;
25191;SDS011;13143;50.924;5.320;2022-10-16T13:33:13;3.92;;;1.20;;
25191;SDS011;13143;50.924;5.320;2022-10-16T13:35:49;3.55;;;1.20;;
25191;SDS011;13143;50.924;5.320;2022-10-16T13:38:18;3.45;;;1.10;;
25191;SDS011;13143;50.924;5.320;2022-10-16T13:46:00;4.38;;;0.90;;
25191;SDS011;13143;50.924;5.320;2022-10-16T13:48:28;9.48;;;1.08;;
25191;SDS011;13143;50.924;5.320;2022-10-16T13:50:59;3.22;;;1.05;;
25191;SDS011;13143;50.924;5.320;2022-10-16T13:53:26;5.05;;;1.15;;
25191;SDS011;13143;50.924;5.320;2022-10-16T13:55:52;5.57;;;1.10;;
25191;SDS011;13143;50.924;5.320;2022-10-16T13:58:17;4.13;;;1.23;;
25191;SDS011;13143;50.924;5.320;2022-10-16T14:00:59;4.82;;;1.05;;
25191;SDS011;13143;50.924;5.320;2022-10-16T14:03:27;3.00;;;1.23;;
25191;SDS011;13143;50.924;5.320;2022-10-16T14:05:55;3.20;;;0.80;;
25191;SDS011;13143;50.924;5.320;2022-10-16T14:08:25;2.38;;;0.90;;
25191;SDS011;13143;50.924;5.320;2022-10-16T14:10:54;2.80;;;1.58;;
25191;SDS011;13143;50.924;5.320;2022-10-16T14:13:36;3.45;;;0.80;;
25191;SDS011;13143;50.924;5.320;2022-10-16T14:16:09;6.32;;;0.82;;
25191;SDS011;13143;50.924;5.320;2022-10-16T14:18:41;4.60;;;0.80;;
25191;SDS011;13143;50.924;5.320;2022-10-16T14:21:12;6.85;;;1.33;;
25191;SDS011;13143;50.924;5.320;2022-10-16T14:23:40;3.88;;;1.30;;
25191;SDS011;13143;50.924;5.320;2022-10-16T14:28:38;4.18;;;1.08;;
25191;SDS011;13143;50.924;5.320;2022-10-16T14:31:25;4.20;;;1.02;;
25191;SDS011;13143;50.924;5.320;2022-10-16T14:33:58;8.45;;;1.17;;
25191;SDS011;13143;50.924;5.320;2022-10-16T14:36:25;3.10;;;1.17;;
25191;SDS011;13143;50.924;5.320;2022-10-16T14:41:33;4.22;;;1.00;;
25191;SDS011;13143;50.924;5.320;2022-10-16T14:44:09;5.63;;;1.25;;
25191;SDS011;13143;50.924;5.320;2022-10-16T14:46:37;3.90;;;0.80;;
25191;SDS011;13143;50.924;5.320;2022-10-16T14:51:38;1.48;;;0.90;;
25191;SDS011;13143;50.924;5.320;2022-10-16T14:54:10;2.25;;;0.77;;
25191;SDS011;13143;50.924;5.320;2022-10-16T14:56:44;2.65;;;0.88;;
25191;SDS011;13143;50.924;5.320;2022-10-16T14:59:39;3.83;;;1.15;;
25191;SDS011;13143;50.924;5.320;2022-10-16T15:04:50;2.65;;;0.90;;
25191;SDS011;13143;50.924;5.320;2022-10-16T15:07:16;6.63;;;1.38;;
25191;SDS011;13143;50.924;5.320;2022-10-16T15:09:41;2.80;;;1.02;;
25191;SDS011;13143;50.924;5.320;2022-10-16T15:12:07;8.65;;;1.40;;
25191;SDS011;13143;50.924;5.320;2022-10-16T15:14:33;5.22;;;1.20;;
25191;SDS011;13143;50.924;5.320;2022-10-16T15:16:59;3.75;;;1.23;;
25191;SDS011;13143;50.924;5.320;2022-10-16T15:19:25;4.25;;;1.63;;
25191;SDS011;13143;50.924;5.320;2022-10-16T15:21:51;5.78;;;1.30;;
25191;SDS011;13143;50.924;5.320;2022-10-16T15:24:17;3.83;;;0.80;;
25191;SDS011;13143;50.924;5.320;2022-10-16T15:26:43;5.65;;;1.00;;
25191;SDS011;13143;50.924;5.320;2022-10-16T15:29:11;4.85;;;1.63;;
25191;SDS011;13143;50.924;5.320;2022-10-16T15:31:36;2.47;;;1.00;;
25191;SDS011;13143;50.924;5.320;2022-10-16T15:34:02;3.53;;;1.60;;
25191;SDS011;13143;50.924;5.320;2022-10-16T15:36:32;4.50;;;2.10;;
25191;SDS011;13143;50.924;5.320;2022-10-16T15:39:01;8.25;;;2.25;;
25191;SDS011;13143;50.924;5.320;2022-10-16T15:41:35;4.50;;;2.35;;
25191;SDS011;13143;50.924;5.320;2022-10-16T15:44:00;6.10;;;2.40;;
25191;SDS011;13143;50.924;5.320;2022-10-16T15:46:26;7.97;;;2.33;;
25191;SDS011;13143;50.924;5.320;2022-10-16T15:48:55;5.95;;;1.70;;
25191;SDS011;13143;50.924;5.320;2022-10-16T15:51:24;5.47;;;2.08;;
25191;SDS011;13143;50.924;5.320;2022-10-16T15:53:55;3.95;;;1.55;;
25191;SDS011;13143;50.924;5.320;2022-10-16T15:56:22;3.80;;;1.52;;
25191;SDS011;13143;50.924;5.320;2022-10-16T15:58:49;5.78;;;1.48;;
25191;SDS011;13143;50.924;5.320;2022-10-16T16:01:14;4.00;;;1.75;;
25191;SDS011;13143;50.924;5.320;2022-10-16T16:03:41;6.68;;;2.97;;
25191;SDS011;13143;50.924;5.320;2022-10-16T16:06:08;8.57;;;2.83;;
25191;SDS011;13143;50.924;5.320;2022-10-16T16:08:35;2.90;;;1.60;;
25191;SDS011;13143;50.924;5.320;2022-10-16T16:11:03;5.38;;;1.98;;
25191;SDS011;13143;50.924;5.320;2022-10-16T16:13:35;5.70;;;2.35;;
25191;SDS011;13143;50.924;5.320;2022-10-16T16:16:05;5.50;;;2.10;;
25191;SDS011;13143;50.924;5.320;2022-10-16T16:18:35;9.40;;;3.67;;
25191;SDS011;13143;50.924;5.320;2022-10-16T16:21:01;6.13;;;3.30;;
25191;SDS011;13143;50.924;5.320;2022-10-16T16:23:26;6.45;;;4.05;;
25191;SDS011;13143;50.924;5.320;2022-10-16T16:28:58;5.10;;;2.58;;
25191;SDS011;13143;50.924;5.320;2022-10-16T16:31:25;3.95;;;2.00;;
25191;SDS011;13143;50.924;5.320;2022-10-16T16:33:52;5.78;;;1.90;;
25191;SDS011;13143;50.924;5.320;2022-10-16T16:36:18;3.88;;;1.90;;
25191;SDS011;13143;50.924;5.320;2022-10-16T16:38:44;6.07;;;2.10;;
25191;SDS011;13143;50.924;5.320;2022-10-16T16:41:14;5.07;;;1.67;;
25191;SDS011;13143;50.924;5.320;2022-10-16T16:43:41;6.93;;;2.22;;
25191;SDS011;13143;50.924;5.320;2022-10-16T16:46:07;4.47;;;1.85;;
25191;SDS011;13143;50.924;5.320;2022-10-16T16:48:33;7.57;;;1.65;;
25191;SDS011;13143;50.924;5.320;2022-10-16T16:51:05;8.10;;;2.15;;
25191;SDS011;13143;50.924;5.320;2022-10-16T16:53:33;5.65;;;2.22;;
25191;SDS011;13143;50.924;5.320;2022-10-16T16:56:03;7.22;;;2.30;;
25191;SDS011;13143;50.924;5.320;2022-10-16T16:58:30;6.78;;;2.60;;
25191;SDS011;13143;50.924;5.320;2022-10-16T17:00:57;11.35;;;2.63;;
25191;SDS011;13143;50.924;5.320;2022-10-16T17:03:26;7.85;;;2.72;;
25191;SDS011;13143;50.924;5.320;2022-10-16T17:05:56;10.07;;;3.22;;
25191;SDS011;13143;50.924;5.320;2022-10-16T17:08:22;5.47;;;3.17;;
25191;SDS011;13143;50.924;5.320;2022-10-16T17:10:48;8.10;;;3.47;;